createdAt,value
2022-11-21T00:00:22.620Z,91.90
2022-11-21T00:05:44.189Z,107.20
2022-11-21T00:10:50.152Z,120.40
2022-11-21T00:15:56.097Z,112.00
2022-11-21T00:21:07.392Z,97.10
2022-11-21T00:26:14.893Z,89.90
2022-11-21T00:31:22.642Z,115.20
2022-11-21T00:36:28.277Z,114.30
2022-11-21T00:41:34.244Z,117.90
2022-11-21T00:46:39.900Z,118.70
2022-11-21T00:51:45.733Z,114.40
2022-11-21T00:56:51.572Z,100.60
2022-11-21T01:01:57.331Z,99.60
2022-11-21T01:07:03.497Z,110.90
2022-11-21T01:12:09.523Z,107.70
2022-11-21T01:17:15.484Z,106.10
2022-11-21T01:22:21.128Z,96.20
2022-11-21T01:27:26.867Z,96.20
2022-11-21T01:32:32.705Z,103.20
2022-11-21T01:37:38.368Z,111.80
2022-11-21T01:42:54.022Z,115.20
2022-11-21T01:47:59.791Z,116.90
2022-11-21T01:53:05.731Z,115.30
2022-11-21T01:58:12.405Z,104.90
2022-11-21T02:03:24.036Z,91.90
2022-11-21T02:08:30.648Z,107.10
2022-11-21T02:13:36.361Z,115.80
2022-11-21T02:18:42.203Z,108.10
2022-11-21T02:24:00.219Z,114.70
2022-11-21T02:29:06.457Z,110.80
2022-11-21T02:34:12.283Z,112.30
2022-11-21T02:39:26.196Z,122.10
2022-11-21T02:44:38.585Z,125.20
2022-11-21T02:49:50.824Z,108.60
2022-11-21T02:54:56.434Z,97.50
2022-11-21T03:00:02.279Z,114.90
2022-11-21T03:05:10.720Z,113.00
2022-11-21T03:10:17.358Z,127.70
2022-11-21T03:15:23.061Z,127.20
2022-11-21T03:20:28.696Z,124.30
2022-11-21T03:25:34.416Z,121.70
2022-11-21T03:30:40.008Z,129.00
2022-11-21T03:35:45.621Z,126.20
2022-11-21T03:40:51.311Z,117.80
2022-11-21T03:45:57.536Z,107.70
2022-11-21T03:51:03.206Z,113.60
2022-11-21T03:56:08.960Z,116.90
2022-11-21T04:01:15.774Z,112.90
2022-11-21T04:06:22.822Z,131.70
2022-11-21T04:11:28.566Z,129.30
2022-11-21T04:16:34.183Z,126.00
2022-11-21T04:21:40.115Z,135.40
2022-11-21T04:26:46.004Z,122.70
2022-11-21T04:31:51.720Z,125.30
2022-11-21T04:36:58.047Z,125.30
2022-11-21T04:42:03.880Z,138.80
2022-11-21T04:47:09.679Z,137.80
2022-11-21T04:52:15.469Z,132.60
2022-11-21T04:57:21.781Z,136.40
2022-11-21T05:02:27.407Z,167.80
2022-11-21T05:07:33.084Z,152.70
2022-11-21T05:12:57.611Z,144.90
2022-11-21T05:18:03.389Z,170.50
2022-11-21T05:23:09.088Z,139.00
2022-11-21T05:28:14.996Z,132.80
2022-11-21T05:33:20.668Z,147.70
2022-11-21T05:38:26.419Z,157.20
2022-11-21T05:43:47.546Z,154.90
2022-11-21T05:48:54.564Z,156.80
2022-11-21T05:54:01.288Z,151.20
2022-11-21T05:59:08.484Z,162.30
2022-11-21T06:04:14.229Z,152.20
2022-11-21T06:09:19.829Z,156.50
2022-11-21T06:14:25.604Z,135.30
2022-11-21T06:19:31.422Z,155.10
2022-11-21T06:24:37.209Z,169.40
2022-11-21T06:29:43.023Z,173.00
2022-11-21T06:34:48.648Z,158.20
2022-11-21T06:39:54.267Z,139.60
2022-11-21T06:44:59.868Z,147.40
2022-11-21T06:50:06.304Z,124.30
2022-11-21T06:55:13.309Z,137.20
2022-11-21T07:00:21.081Z,140.50
2022-11-21T07:05:26.848Z,144.70
2022-11-21T07:10:32.673Z,144.60
2022-11-21T07:15:38.244Z,133.70
2022-11-21T07:20:43.993Z,119.50
2022-11-21T07:25:49.897Z,147.70
2022-11-21T07:30:58.183Z,147.40
2022-11-21T07:36:04.032Z,132.30
2022-11-21T07:41:10.268Z,150.70
2022-11-21T07:46:16.043Z,158.00
2022-11-21T07:51:21.904Z,115.00
2022-11-21T07:56:27.771Z,110.40
2022-11-21T08:01:33.988Z,108.90
2022-11-21T08:06:39.603Z,122.10
2022-11-21T08:11:45.176Z,123.30
2022-11-21T08:16:53.320Z,115.20
2022-11-21T08:21:59.514Z,111.50
2022-11-21T08:27:05.578Z,98.20
2022-11-21T08:32:11.393Z,95.40
2022-11-21T08:37:17.194Z,101.40
2022-11-21T08:42:22.877Z,101.30
2022-11-21T08:47:28.704Z,98.70
2022-11-21T08:52:34.422Z,97.40
2022-11-21T08:57:40.769Z,89.70
2022-11-21T09:02:46.464Z,77.20
2022-11-21T09:07:57.777Z,81.30
2022-11-21T09:13:03.620Z,80.50
2022-11-21T09:18:10.716Z,81.00
2022-11-21T09:23:17.842Z,78.60
2022-11-21T09:28:23.710Z,69.80
2022-11-21T09:33:29.461Z,71.20
2022-11-21T09:38:35.073Z,72.30
2022-11-21T09:43:55.634Z,73.40
2022-11-21T09:49:05.402Z,85.80
2022-11-21T09:54:20.416Z,72.50
2022-11-21T09:59:34.232Z,74.10
2022-11-21T10:04:40.110Z,70.40
2022-11-21T10:10:02.395Z,61.80
2022-11-21T10:15:25.225Z,64.80
2022-11-21T10:20:48.693Z,65.30
2022-11-21T10:26:02.418Z,60.10
2022-11-21T10:31:11.492Z,70.10
2022-11-21T10:36:25.864Z,61.90
2022-11-21T10:41:44.671Z,63.50
2022-11-21T10:46:57.983Z,53.10
2022-11-21T10:52:11.441Z,60.80
2022-11-21T10:57:19.689Z,63.10
2022-11-21T11:02:26.594Z,59.60
2022-11-21T11:07:32.592Z,61.80
2022-11-21T11:12:57.364Z,56.30
2022-11-21T11:18:09.385Z,63.70
2022-11-21T11:23:26.282Z,61.50
2022-11-21T11:28:37.784Z,63.00
2022-11-21T11:33:52.779Z,66.00
2022-11-21T11:39:00.114Z,66.20
2022-11-21T11:44:33.212Z,64.00
2022-11-21T11:50:15.721Z,69.10
2022-11-21T11:55:29.888Z,69.40
2022-11-21T12:00:46.708Z,65.80
2022-11-21T12:06:01.629Z,71.60
2022-11-21T12:11:37.629Z,72.90
2022-11-21T12:16:43.826Z,73.70
2022-11-21T12:21:49.534Z,67.50
2022-11-21T12:27:04.271Z,71.80
2022-11-21T12:32:28.605Z,74.80
2022-11-21T12:37:48.173Z,68.40
2022-11-21T12:43:07.856Z,75.50
2022-11-21T12:48:59.319Z,80.90
2022-11-21T12:54:31.808Z,71.60
2022-11-21T12:59:49.516Z,65.80
2022-11-21T13:04:57.723Z,75.80
2022-11-21T13:10:05.119Z,73.20
2022-11-21T13:15:24.628Z,78.80
2022-11-21T13:20:37.578Z,85.50
2022-11-21T13:25:47.974Z,82.60
2022-11-21T13:30:55.272Z,89.40
2022-11-21T13:36:02.650Z,75.30
2022-11-21T13:41:27.922Z,96.50
2022-11-21T13:47:00.378Z,84.70
2022-11-21T13:52:11.500Z,82.20
2022-11-21T13:57:36.382Z,82.40
2022-11-21T14:03:03.048Z,90.70
2022-11-21T14:08:19.546Z,89.40
2022-11-21T14:13:30.470Z,77.00
2022-11-21T14:18:38.347Z,76.60
2022-11-21T14:23:47.149Z,85.70
2022-11-21T14:28:53.061Z,87.60
2022-11-21T14:33:59.244Z,83.70
2022-11-21T14:44:35.886Z,102.00
2022-11-21T14:49:48.596Z,89.00
2022-11-21T14:55:28.599Z,93.20
2022-11-21T15:06:04.569Z,104.40
2022-11-21T15:11:12.703Z,99.00
2022-11-21T15:16:18.722Z,100.10
2022-11-21T15:21:24.724Z,101.10
2022-11-21T15:26:33.177Z,107.40
2022-11-21T15:31:38.966Z,106.60
2022-11-21T15:36:45.003Z,101.80
2022-11-21T15:41:50.656Z,88.90
2022-11-21T15:46:56.432Z,100.80
2022-11-21T15:52:10.226Z,98.40
2022-11-21T15:57:17.414Z,100.80
2022-11-21T16:02:23.646Z,107.70
2022-11-21T16:07:29.902Z,103.80
2022-11-21T16:12:35.918Z,97.80
2022-11-21T16:17:41.762Z,105.10
2022-11-21T16:22:48.218Z,126.60
2022-11-21T16:27:55.977Z,112.30
2022-11-21T16:33:04.138Z,92.60
2022-11-21T16:38:10.426Z,98.80
2022-11-21T16:43:16.203Z,101.40
2022-11-21T16:48:23.530Z,97.70
2022-11-21T16:53:31.936Z,117.00
2022-11-21T16:58:40.494Z,96.60
2022-11-21T17:03:48.137Z,110.00
2022-11-21T17:08:54.385Z,116.60
2022-11-21T17:14:04.612Z,122.70
2022-11-21T17:19:12.567Z,132.80
2022-11-21T17:24:18.526Z,118.00
2022-11-21T17:29:24.396Z,104.60
2022-11-21T17:34:33.276Z,105.10
2022-11-21T17:39:39.262Z,119.60
2022-11-21T17:44:45.056Z,126.80
2022-11-21T17:49:50.858Z,98.90
2022-11-21T17:54:56.621Z,99.30
2022-11-21T18:00:02.526Z,106.60
2022-11-21T18:05:10.512Z,114.70
2022-11-21T18:10:41.654Z,105.80
2022-11-21T18:15:43.130Z,104.30
2022-11-21T18:20:49.544Z,107.10
2022-11-21T18:25:55.193Z,109.00
2022-11-21T18:31:09.106Z,100.90
2022-11-21T18:36:15.136Z,139.30
2022-11-21T18:41:22.592Z,105.60
2022-11-21T18:46:30.378Z,95.80
2022-11-21T18:51:36.925Z,96.10
2022-11-21T18:56:42.735Z,90.10
2022-11-21T19:01:49.919Z,96.90
2022-11-21T19:06:56.732Z,96.40
2022-11-21T19:12:02.409Z,100.70
2022-11-21T19:17:08.538Z,99.20
2022-11-21T19:22:14.545Z,98.60
2022-11-21T19:27:24.361Z,94.50
2022-11-21T19:32:34.089Z,97.00
2022-11-21T19:37:39.870Z,99.90
2022-11-21T19:42:45.779Z,105.40
2022-11-21T19:47:57.117Z,92.80
2022-11-21T19:53:02.866Z,88.00
2022-11-21T19:58:08.544Z,101.60
2022-11-21T20:03:14.238Z,107.90
2022-11-21T20:08:19.979Z,105.60
2022-11-21T20:13:25.768Z,94.00
2022-11-21T20:18:31.852Z,89.30
2022-11-21T20:23:37.669Z,106.40
2022-11-21T20:28:43.751Z,99.80
2022-11-21T20:33:51.536Z,91.70
2022-11-21T20:38:58.793Z,97.40
2022-11-21T20:49:33.616Z,104.00
2022-11-21T20:54:39.512Z,114.10
2022-11-21T20:59:45.298Z,104.90
2022-11-21T21:04:51.089Z,108.10
2022-11-21T21:09:57.123Z,116.80
2022-11-21T21:15:02.884Z,115.70
2022-11-21T21:20:11.188Z,104.20
2022-11-21T21:25:17.222Z,107.50
2022-11-21T21:30:22.984Z,108.90
2022-11-21T21:35:28.694Z,116.10
2022-11-21T21:40:34.498Z,102.50
2022-11-21T21:45:40.322Z,102.70
2022-11-21T21:50:46.206Z,104.30
2022-11-21T21:55:51.923Z,112.40
2022-11-21T22:01:05.152Z,103.40
2022-11-21T22:06:13.170Z,106.30
2022-11-21T22:11:20.286Z,96.40
2022-11-21T22:16:27.067Z,99.50
2022-11-21T22:21:35.345Z,102.30
2022-11-21T22:26:41.261Z,102.30
2022-11-21T22:31:47.113Z,104.00
2022-11-21T22:36:52.938Z,115.20
2022-11-21T22:42:00.059Z,105.00
2022-11-21T22:47:06.100Z,89.80
2022-11-21T22:52:12.244Z,96.80
2022-11-21T22:57:19.169Z,103.20
2022-11-21T23:02:24.874Z,106.00
2022-11-21T23:07:31.817Z,96.70
2022-11-21T23:12:38.078Z,96.90
2022-11-21T23:17:47.189Z,98.90
2022-11-21T23:22:59.102Z,99.90
2022-11-21T23:28:05.194Z,105.00
2022-11-21T23:33:11.240Z,95.80
2022-11-21T23:38:18.168Z,97.20
2022-11-21T23:43:24.024Z,100.60
2022-11-21T23:48:30.224Z,104.40
2022-11-21T23:53:36.306Z,99.90
2022-11-21T23:58:42.037Z,96.10
